Terminal Aerodrome Forecast
Issued by NWS

Home | Current Version | Previous Version | Text Only | Print | Product List | Glossary On
Versions: 1 2 3 4 5 6 7 8 9 10 11 12 13 14 15 16 17 18
960
FTUS46 KSEW 201129
TAFOLM
TAF
KOLM 201129Z 2012/2112 22005KT P6SM BKN060 OVC100
     FM201600 05004KT P6SM VCSH BKN045 OVC080
      TEMPO 2018/2022 5SM -SN BR OVC030
     FM202200 05004KT 5SM -SN BR SCT015 OVC025
     FM210300 04004KT P6SM FEW030 BKN070 BKN120
     FM210900 02005KT P6SM SKC=

USA.gov is the U.S. government's official web portal to all federal, state and local government web resources and services.